createdAt,value
2019-05-12T00:01:28.622Z,10.25
2019-05-12T00:03:58.053Z,10.25
2019-05-12T00:06:28.380Z,10.21
2019-05-12T00:08:57.958Z,10.34
2019-05-12T00:11:28.504Z,10.36
2019-05-12T00:13:58.627Z,10.33
2019-05-12T00:16:28.361Z,10.30
2019-05-12T00:18:58.612Z,10.08
2019-05-12T00:21:28.329Z,10.03
2019-05-12T00:24:11.944Z,10.02
2019-05-12T00:26:41.979Z,10.11
2019-05-12T00:29:10.492Z,10.16
2019-05-12T00:31:38.923Z,10.26
2019-05-12T00:34:07.792Z,9.95
2019-05-12T00:36:37.951Z,9.92
2019-05-12T00:39:08.555Z,10.02
2019-05-12T00:41:40.248Z,10.08
2019-05-12T00:44:09.078Z,10.09
2019-05-12T00:46:38.553Z,10.06
2019-05-12T00:49:08.061Z,9.90
2019-05-12T00:51:38.417Z,9.72
2019-05-12T00:54:09.134Z,9.48
2019-05-12T00:56:39.243Z,9.28
2019-05-12T00:59:08.316Z,9.41
2019-05-12T01:01:38.117Z,9.66
2019-05-12T01:04:08.764Z,9.78
2019-05-12T01:06:38.731Z,9.88
2019-05-12T01:09:08.737Z,9.81
2019-05-12T01:11:37.944Z,9.79
2019-05-12T01:14:08.585Z,9.85
2019-05-12T01:16:38.546Z,9.89
2019-05-12T01:19:07.920Z,9.67
2019-05-12T01:21:37.705Z,9.58
2019-05-12T01:24:08.868Z,9.40
2019-05-12T01:26:38.657Z,9.29
2019-05-12T01:29:08.499Z,9.14
2019-05-12T01:31:38.744Z,9.20
2019-05-12T01:34:08.110Z,9.33
2019-05-12T01:36:38.116Z,9.35
2019-05-12T01:39:08.617Z,9.33
2019-05-12T01:41:38.926Z,9.45
2019-05-12T01:44:08.835Z,9.42
2019-05-12T01:46:38.326Z,9.47
2019-05-12T01:49:08.290Z,9.42
2019-05-12T01:51:38.457Z,9.34
2019-05-12T01:54:14.376Z,9.34
2019-05-12T01:56:38.309Z,9.11
2019-05-12T01:59:08.113Z,9.12
2019-05-12T02:01:38.823Z,9.12
2019-05-12T02:04:07.746Z,9.17
2019-05-12T02:06:38.735Z,9.11
2019-05-12T02:09:08.289Z,9.19
2019-05-12T02:11:38.039Z,9.16
2019-05-12T02:14:09.020Z,9.10
2019-05-12T02:16:38.691Z,9.14
2019-05-12T02:19:09.091Z,9.12
2019-05-12T02:21:38.212Z,9.08
2019-05-12T02:24:07.841Z,8.71
2019-05-12T02:26:38.298Z,8.31
2019-05-12T02:29:07.904Z,8.16
2019-05-12T02:31:39.546Z,8.22
2019-05-12T02:34:06.657Z,8.35
2019-05-12T02:36:35.062Z,8.48
2019-05-12T02:39:06.133Z,8.60
2019-05-12T02:41:34.800Z,8.63
2019-05-12T02:44:05.335Z,8.66
2019-05-12T02:46:34.798Z,8.65
2019-05-12T02:49:04.805Z,8.67
2019-05-12T02:51:35.592Z,8.76
2019-05-12T02:54:05.492Z,8.87
2019-05-12T02:56:35.742Z,8.97
2019-05-12T02:59:05.437Z,8.93
2019-05-12T03:01:36.031Z,8.97
2019-05-12T03:04:05.919Z,8.82
2019-05-12T03:06:36.476Z,8.75
2019-05-12T03:09:07.458Z,8.74
2019-05-12T03:11:37.057Z,8.84
2019-05-12T03:14:05.667Z,9.05
2019-05-12T03:16:34.902Z,9.18
2019-05-12T03:19:04.887Z,9.25
2019-05-12T03:21:35.179Z,9.10
2019-05-12T03:24:06.073Z,9.06
2019-05-12T03:26:34.893Z,9.08
2019-05-12T03:29:05.815Z,9.01
2019-05-12T03:31:38.699Z,8.85
2019-05-12T03:34:09.347Z,8.64
2019-05-12T03:36:41.041Z,8.63
2019-05-12T03:39:06.243Z,8.69
2019-05-12T03:41:34.914Z,8.51
2019-05-12T03:44:05.097Z,8.39
2019-05-12T03:46:35.276Z,8.43
2019-05-12T03:49:05.345Z,8.40
2019-05-12T03:51:34.967Z,8.40
2019-05-12T03:54:05.060Z,8.41
2019-05-12T03:56:34.661Z,8.45
2019-05-12T03:59:04.840Z,8.27
2019-05-12T04:01:36.252Z,8.28
2019-05-12T04:04:05.268Z,8.34
2019-05-12T04:06:34.806Z,8.35
2019-05-12T04:09:05.979Z,8.38
2019-05-12T04:11:35.602Z,8.34
2019-05-12T04:14:05.774Z,8.27
2019-05-12T04:16:36.286Z,8.25
2019-05-12T04:19:05.553Z,8.29
2019-05-12T04:21:35.260Z,8.26
2019-05-12T04:24:05.927Z,8.22
2019-05-12T04:26:36.420Z,8.21
2019-05-12T04:29:05.334Z,8.24
2019-05-12T04:31:35.832Z,8.21
2019-05-12T04:34:05.391Z,8.24
2019-05-12T04:36:35.597Z,8.29
2019-05-12T04:39:06.592Z,8.24
2019-05-12T04:41:35.624Z,8.17
2019-05-12T04:44:05.897Z,8.20
2019-05-12T04:46:34.776Z,8.18
2019-05-12T04:49:05.192Z,8.07
2019-05-12T04:51:34.933Z,8.00
2019-05-12T04:54:05.803Z,7.93
2019-05-12T04:56:35.738Z,8.00
2019-05-12T04:59:04.946Z,8.12
2019-05-12T05:01:34.870Z,8.28
2019-05-12T05:04:05.367Z,8.33
2019-05-12T05:06:34.393Z,8.48
2019-05-12T05:09:05.145Z,8.55
2019-05-12T05:11:34.515Z,8.34
2019-05-12T05:14:04.179Z,8.49
2019-05-12T05:16:34.604Z,8.29
2019-05-12T05:19:03.723Z,8.25
2019-05-12T05:21:34.234Z,8.33
2019-05-12T05:24:03.829Z,8.38
2019-05-12T05:26:37.046Z,8.34
2019-05-12T05:29:04.282Z,8.43
2019-05-12T05:31:33.680Z,8.60
2019-05-12T05:34:04.850Z,8.82
2019-05-12T05:36:34.605Z,8.87
2019-05-12T05:39:05.496Z,8.94
2019-05-12T05:41:34.571Z,9.17
2019-05-12T05:44:03.286Z,9.28
2019-05-12T05:46:33.674Z,9.19
2019-05-12T05:49:04.082Z,9.38
2019-05-12T05:51:33.550Z,9.38
2019-05-12T05:54:03.996Z,9.44
2019-05-12T05:56:41.811Z,9.31
2019-05-12T05:59:04.622Z,9.39
2019-05-12T06:01:34.824Z,9.33
2019-05-12T06:04:04.419Z,9.55
2019-05-12T06:06:34.147Z,9.77
2019-05-12T06:09:04.482Z,9.68
2019-05-12T06:11:34.560Z,9.50
2019-05-12T06:14:11.117Z,9.59
2019-05-12T06:16:34.069Z,9.56
2019-05-12T06:19:03.476Z,9.54
2019-05-12T06:21:36.829Z,9.42
2019-05-12T06:24:03.548Z,9.51
2019-05-12T06:26:35.450Z,9.65
2019-05-12T06:29:04.401Z,9.75
2019-05-12T06:31:33.454Z,10.07
2019-05-12T06:34:06.283Z,10.13
2019-05-12T06:36:34.000Z,9.92
2019-05-12T06:39:04.294Z,10.10
2019-05-12T06:41:33.617Z,10.19
2019-05-12T06:44:03.722Z,10.44
2019-05-12T06:46:34.219Z,10.65
2019-05-12T06:49:10.163Z,10.83
2019-05-12T06:51:33.877Z,11.03
2019-05-12T06:54:07.251Z,11.01
2019-05-12T06:56:34.225Z,10.98
2019-05-12T06:59:09.800Z,11.06
2019-05-12T07:01:33.531Z,10.92
2019-05-12T07:04:06.730Z,10.88
2019-05-12T07:06:33.922Z,10.93
2019-05-12T07:09:09.499Z,10.82
2019-05-12T07:11:42.445Z,10.10
2019-05-12T07:14:19.050Z,10.71
2019-05-12T07:16:39.210Z,10.45
2019-05-12T07:19:20.604Z,10.39
2019-05-12T07:21:37.823Z,10.24
2019-05-12T07:24:10.908Z,10.33
2019-05-12T07:26:36.389Z,10.44
2019-05-12T07:29:04.812Z,10.52
2019-05-12T07:31:33.691Z,10.64
2019-05-12T07:34:06.949Z,10.72
2019-05-12T07:36:34.321Z,11.02
2019-05-12T07:39:08.445Z,11.14
2019-05-12T07:41:42.560Z,11.13
2019-05-12T07:44:09.500Z,11.27
2019-05-12T07:46:39.630Z,11.41
2019-05-12T07:49:08.159Z,11.57
2019-05-12T07:51:40.466Z,11.76
2019-05-12T07:54:06.770Z,11.97
2019-05-12T07:56:35.842Z,12.10
2019-05-12T07:59:04.538Z,12.15
2019-05-12T08:01:35.764Z,12.18
2019-05-12T08:04:04.557Z,12.51
2019-05-12T08:06:41.324Z,12.63
2019-05-12T08:09:05.119Z,12.90
2019-05-12T08:11:37.332Z,12.78
2019-05-12T08:14:03.768Z,13.04
2019-05-12T08:16:36.237Z,13.55
2019-05-12T08:19:04.017Z,13.48
2019-05-12T08:21:34.742Z,13.73
2019-05-12T08:24:03.806Z,14.01
2019-05-12T08:26:33.460Z,14.04
2019-05-12T08:29:04.236Z,14.24
2019-05-12T08:31:40.082Z,14.30
2019-05-12T08:34:04.193Z,14.65
2019-05-12T08:36:33.487Z,14.51
2019-05-12T08:39:05.948Z,14.79
2019-05-12T08:41:34.189Z,14.89
2019-05-12T08:44:04.432Z,14.98
2019-05-12T08:46:34.444Z,15.41
2019-05-12T08:49:05.430Z,15.61
2019-05-12T08:51:33.900Z,15.19
2019-05-12T08:54:07.478Z,14.71
2019-05-12T08:56:33.277Z,14.68
2019-05-12T08:59:04.119Z,14.44
2019-05-12T09:01:34.158Z,14.43
2019-05-12T09:04:06.707Z,13.97
2019-05-12T09:06:34.287Z,13.65
2019-05-12T09:09:04.641Z,13.41
2019-05-12T09:11:33.555Z,13.90
2019-05-12T09:14:05.210Z,14.15
2019-05-12T09:16:33.606Z,14.03
2019-05-12T09:19:04.681Z,13.99
2019-05-12T09:21:34.854Z,14.05
2019-05-12T09:24:04.136Z,13.85
2019-05-12T09:26:34.410Z,13.88
2019-05-12T09:29:03.475Z,13.77
2019-05-12T09:31:33.692Z,13.91
2019-05-12T09:34:05.837Z,13.73
2019-05-12T09:36:33.865Z,13.80
2019-05-12T09:39:03.836Z,14.04
2019-05-12T09:41:35.949Z,14.12
2019-05-12T09:44:04.589Z,14.56
2019-05-12T09:46:37.279Z,14.64
2019-05-12T09:49:04.090Z,14.63
2019-05-12T09:51:41.018Z,14.58
2019-05-12T09:54:05.093Z,14.74
2019-05-12T09:56:34.189Z,15.07
2019-05-12T09:59:17.558Z,15.09
2019-05-12T10:01:37.422Z,15.59
2019-05-12T10:04:03.552Z,15.65
2019-05-12T10:06:33.974Z,15.73
2019-05-12T10:09:03.470Z,15.72
2019-05-12T10:11:31.971Z,15.72
2019-05-12T10:14:05.659Z,15.94
2019-05-12T10:16:30.545Z,15.65
2019-05-12T10:18:58.987Z,15.19
2019-05-12T10:21:27.424Z,15.49
2019-05-12T10:24:00.137Z,15.63
2019-05-12T10:26:26.077Z,16.07
2019-05-12T10:28:58.303Z,16.47
2019-05-12T10:31:29.529Z,16.39
2019-05-12T10:33:58.157Z,15.74
2019-05-12T10:36:26.597Z,16.10
2019-05-12T10:38:55.045Z,16.53
2019-05-12T10:41:23.747Z,16.74
2019-05-12T10:43:55.933Z,17.01
2019-05-12T10:46:26.822Z,17.06
2019-05-12T10:48:53.915Z,17.16
2019-05-12T10:51:23.885Z,16.44
2019-05-12T10:53:59.838Z,16.58
2019-05-12T10:56:23.997Z,16.57
2019-05-12T10:58:53.499Z,19.60
2019-05-12T11:01:24.250Z,21.80
2019-05-12T11:03:52.265Z,23.18
2019-05-12T11:06:20.665Z,20.43
2019-05-12T11:08:51.174Z,19.72
2019-05-12T11:11:19.275Z,21.37
2019-05-12T11:13:49.965Z,23.28
2019-05-12T11:16:22.964Z,23.08
2019-05-12T11:18:48.039Z,22.40
2019-05-12T11:21:16.431Z,21.33
2019-05-12T11:23:44.872Z,19.66
2019-05-12T11:26:14.172Z,18.31
2019-05-12T11:28:42.622Z,17.96
2019-05-12T11:31:11.054Z,18.68
2019-05-12T11:33:39.494Z,20.26
2019-05-12T11:36:07.918Z,20.51
2019-05-12T11:38:36.351Z,21.88
2019-05-12T11:41:04.772Z,23.73
2019-05-12T11:43:33.821Z,21.49
2019-05-12T11:46:02.445Z,20.85
2019-05-12T11:48:30.851Z,19.38
2019-05-12T11:50:59.298Z,18.19
2019-05-12T11:53:30.810Z,19.05
2019-05-12T11:56:02.381Z,21.63
2019-05-12T11:58:28.000Z,23.44
2019-05-12T12:01:06.446Z,24.04
2019-05-12T12:03:28.233Z,24.70
2019-05-12T12:05:56.946Z,25.42
2019-05-12T12:08:32.539Z,22.92
2019-05-12T12:10:55.562Z,20.96
2019-05-12T12:13:29.798Z,20.73
2019-05-12T12:15:54.299Z,22.10
2019-05-12T12:18:23.565Z,22.71
2019-05-12T12:20:57.157Z,23.67
2019-05-12T12:23:22.307Z,24.25
2019-05-12T12:25:50.740Z,23.72
2019-05-12T12:28:19.154Z,22.68
2019-05-12T12:30:52.492Z,23.38
2019-05-12T12:33:17.781Z,24.12
2019-05-12T12:35:50.574Z,23.32
2019-05-12T12:38:16.419Z,23.16
2019-05-12T12:40:44.850Z,22.52
2019-05-12T12:43:13.767Z,22.25
2019-05-12T12:45:55.910Z,22.32
2019-05-12T12:48:29.434Z,22.49
2019-05-12T12:50:54.514Z,23.50
2019-05-12T12:53:23.833Z,22.68
2019-05-12T12:55:53.770Z,22.96
2019-05-12T12:58:26.971Z,23.68
2019-05-12T13:00:56.659Z,21.96
2019-05-12T13:03:25.671Z,21.78
2019-05-12T13:05:54.239Z,20.68
2019-05-12T13:08:24.715Z,20.29
2019-05-12T13:10:54.235Z,19.76
2019-05-12T13:13:24.594Z,19.54
2019-05-12T13:15:53.529Z,19.29
2019-05-12T13:18:27.406Z,18.62
2019-05-12T13:20:53.951Z,18.31
2019-05-12T13:23:34.686Z,18.39
2019-05-12T13:25:54.739Z,18.65
2019-05-12T13:28:25.746Z,18.58
2019-05-12T13:30:54.787Z,18.79
2019-05-12T13:33:23.414Z,19.09
2019-05-12T13:35:55.737Z,19.26
2019-05-12T13:38:23.848Z,20.05
2019-05-12T13:40:54.103Z,20.76
2019-05-12T13:43:23.727Z,21.00
2019-05-12T13:45:53.406Z,20.71
2019-05-12T13:48:24.066Z,19.91
2019-05-12T13:50:54.351Z,19.72
2019-05-12T13:53:24.335Z,19.07
2019-05-12T13:55:54.376Z,18.86
2019-05-12T13:58:22.961Z,18.99
2019-05-12T14:01:10.594Z,18.60
2019-05-12T14:03:21.552Z,18.56
2019-05-12T14:05:50.862Z,17.92
2019-05-12T14:08:20.126Z,18.23
2019-05-12T14:10:53.799Z,18.17
2019-05-12T14:13:18.704Z,18.42
2019-05-12T14:15:47.132Z,18.57
2019-05-12T14:18:19.251Z,18.53
2019-05-12T14:20:50.949Z,18.46
2019-05-12T14:23:15.885Z,18.36
2019-05-12T14:25:44.310Z,17.71
2019-05-12T14:28:16.308Z,18.22
2019-05-12T14:30:49.684Z,17.90
2019-05-12T14:33:13.373Z,18.20
2019-05-12T14:35:45.407Z,18.54
2019-05-12T14:38:14.008Z,19.02
2019-05-12T14:40:42.165Z,19.43
2019-05-12T14:43:16.940Z,19.71
2019-05-12T14:45:40.749Z,19.49
2019-05-12T14:48:09.530Z,19.21
2019-05-12T14:50:38.050Z,19.07
2019-05-12T14:53:06.476Z,18.38
2019-05-12T14:55:34.932Z,18.22
2019-05-12T14:58:03.733Z,18.37
2019-05-12T15:00:34.260Z,19.29
2019-05-12T15:03:05.452Z,20.65
2019-05-12T15:05:32.516Z,21.29
2019-05-12T15:08:00.989Z,20.35
2019-05-12T15:10:29.544Z,20.48
2019-05-12T15:12:57.997Z,19.46
2019-05-12T15:15:26.421Z,19.61
2019-05-12T15:18:02.932Z,19.34
2019-05-12T15:20:25.012Z,19.08
2019-05-12T15:22:55.343Z,18.38
2019-05-12T15:25:23.630Z,17.80
2019-05-12T15:27:54.242Z,18.20
2019-05-12T15:30:26.481Z,18.15
2019-05-12T15:32:53.630Z,18.37
2019-05-12T15:35:24.075Z,18.75
2019-05-12T15:37:55.051Z,18.76
2019-05-12T15:40:23.616Z,18.72
2019-05-12T15:42:55.157Z,18.45
2019-05-12T15:45:23.778Z,18.50
2019-05-12T15:47:53.516Z,18.50
2019-05-12T15:50:23.168Z,18.90
2019-05-12T15:52:54.701Z,18.76
2019-05-12T15:55:25.449Z,18.30
2019-05-12T15:57:53.388Z,17.78
2019-05-12T16:00:24.139Z,17.55
2019-05-12T16:02:53.431Z,17.29
2019-05-12T16:05:26.350Z,16.71
2019-05-12T16:07:54.032Z,16.91
2019-05-12T16:10:23.833Z,17.09
2019-05-12T16:12:52.444Z,16.95
2019-05-12T16:15:20.867Z,17.05
2019-05-12T16:17:49.297Z,17.22
2019-05-12T16:20:17.915Z,17.12
2019-05-12T16:22:46.359Z,17.15
2019-05-12T16:25:20.539Z,17.46
2019-05-12T16:27:45.962Z,17.41
2019-05-12T16:30:20.292Z,17.23
2019-05-12T16:32:47.793Z,17.22
2019-05-12T16:35:20.255Z,16.91
2019-05-12T16:37:46.503Z,16.97
2019-05-12T16:40:15.182Z,17.08
2019-05-12T16:42:48.139Z,17.14
2019-05-12T16:45:14.697Z,16.88
2019-05-12T16:47:44.676Z,16.67
2019-05-12T16:50:15.962Z,16.86
2019-05-12T16:52:45.302Z,16.79
2019-05-12T16:55:14.569Z,16.53
2019-05-12T17:01:05.442Z,16.31
2019-05-12T17:03:34.244Z,16.25
2019-05-12T17:06:03.625Z,16.37
2019-05-12T17:08:34.265Z,16.27
2019-05-12T17:11:21.767Z,16.19
2019-05-12T17:13:34.759Z,16.27
2019-05-12T17:16:04.324Z,16.29
2019-05-12T17:18:33.922Z,16.25
2019-05-12T17:21:04.191Z,16.43
2019-05-12T17:23:32.917Z,16.58
2019-05-12T17:26:03.615Z,16.80
2019-05-12T17:28:34.151Z,16.59
2019-05-12T17:31:03.800Z,16.32
2019-05-12T17:33:34.300Z,16.44
2019-05-12T17:36:11.494Z,16.19
2019-05-12T17:38:34.557Z,15.95
2019-05-12T17:41:03.851Z,16.04
2019-05-12T17:43:33.834Z,16.28
2019-05-12T17:46:04.748Z,16.27
2019-05-12T17:48:47.495Z,16.19
2019-05-12T17:51:20.326Z,16.27
2019-05-12T17:53:46.101Z,16.47
2019-05-12T17:56:14.543Z,16.80
2019-05-12T17:58:47.644Z,16.91
2019-05-12T18:01:22.954Z,17.04
2019-05-12T18:03:50.482Z,16.92
2019-05-12T18:06:20.296Z,17.13
2019-05-12T18:08:49.103Z,16.86
2019-05-12T18:11:17.601Z,16.38
2019-05-12T18:13:47.594Z,16.26
2019-05-12T18:16:20.389Z,16.26
2019-05-12T18:18:46.269Z,16.32
2019-05-12T18:21:21.446Z,16.22
2019-05-12T18:23:45.145Z,16.34
2019-05-12T18:26:16.077Z,16.16
2019-05-12T18:28:44.333Z,16.12
2019-05-12T18:31:13.806Z,16.45
2019-05-12T18:33:50.965Z,16.60
2019-05-12T18:36:14.339Z,16.53
2019-05-12T18:38:44.866Z,16.40
2019-05-12T18:41:13.978Z,16.41
2019-05-12T18:43:43.517Z,16.30
2019-05-12T18:46:14.091Z,16.09
2019-05-12T18:48:42.363Z,15.89
2019-05-12T18:51:16.250Z,16.16
2019-05-12T18:53:40.999Z,15.88
2019-05-12T18:56:10.354Z,15.78
2019-05-12T18:58:40.011Z,15.55
2019-05-12T19:01:13.929Z,15.45
2019-05-12T19:03:47.899Z,15.54
2019-05-12T19:06:11.087Z,15.55
2019-05-12T19:08:41.430Z,15.16
2019-05-12T19:11:20.086Z,15.21
2019-05-12T19:13:50.883Z,15.18
2019-05-12T19:16:14.363Z,15.30
2019-05-12T19:18:47.836Z,15.11
2019-05-12T19:21:43.774Z,14.98
2019-05-12T19:24:33.626Z,15.01
2019-05-12T19:27:16.693Z,14.99
2019-05-12T19:29:48.287Z,15.05
2019-05-12T19:32:14.877Z,15.10
2019-05-12T19:34:46.292Z,14.64
2019-05-12T19:37:19.446Z,14.67
2019-05-12T19:39:47.213Z,14.60
2019-05-12T19:42:19.370Z,14.61
2019-05-12T19:44:47.107Z,14.47
2019-05-12T19:47:15.562Z,14.37
2019-05-12T19:49:50.038Z,14.43
2019-05-12T19:52:15.536Z,14.42
2019-05-12T19:54:46.971Z,14.19
2019-05-12T19:57:21.873Z,14.06
2019-05-12T19:59:50.805Z,13.76
2019-05-12T20:02:15.664Z,13.62
2019-05-12T20:04:51.720Z,13.60
2019-05-12T20:07:14.238Z,13.44
2019-05-12T20:09:46.145Z,13.58
2019-05-12T20:12:18.593Z,13.61
2019-05-12T20:14:43.534Z,13.69
2019-05-12T20:17:11.962Z,13.69
2019-05-12T20:19:40.388Z,13.57
2019-05-12T20:22:08.802Z,13.51
2019-05-12T20:24:37.244Z,13.39
2019-05-12T20:27:10.415Z,13.15
2019-05-12T20:29:35.916Z,12.98
2019-05-12T20:32:04.858Z,13.09
2019-05-12T20:34:47.442Z,13.12
2019-05-12T20:37:07.589Z,13.10
2019-05-12T20:39:33.744Z,12.96
2019-05-12T20:42:04.652Z,12.94
2019-05-12T20:44:34.358Z,12.86
2019-05-12T20:47:06.301Z,12.82
2019-05-12T20:49:33.696Z,12.83
2019-05-12T20:52:06.466Z,12.22
2019-05-12T20:54:33.528Z,12.70
2019-05-12T20:57:03.549Z,12.64
2019-05-12T20:59:33.854Z,12.53
2019-05-12T21:02:03.555Z,12.70
2019-05-12T21:04:37.424Z,12.74
2019-05-12T21:07:04.353Z,12.67
2019-05-12T21:09:34.784Z,12.71
2019-05-12T21:12:03.327Z,12.63
2019-05-12T21:14:33.420Z,12.40
2019-05-12T21:17:03.246Z,12.57
2019-05-12T21:19:35.605Z,12.30
2019-05-12T21:22:03.898Z,12.11
2019-05-12T21:24:36.022Z,12.43
2019-05-12T21:27:03.829Z,12.36
2019-05-12T21:29:33.342Z,12.23
2019-05-12T21:32:11.281Z,12.15
2019-05-12T21:34:34.382Z,12.26
2019-05-12T21:37:04.626Z,12.23
2019-05-12T21:39:33.529Z,12.31
2019-05-12T21:42:03.992Z,12.32
2019-05-12T21:44:32.529Z,12.25
2019-05-12T21:47:07.830Z,12.18
2019-05-12T21:49:33.150Z,12.16
2019-05-12T21:52:04.184Z,12.20
2019-05-12T21:54:35.928Z,12.05
2019-05-12T21:57:01.643Z,11.78
2019-05-12T21:59:35.380Z,11.94
2019-05-12T22:02:00.339Z,12.48
2019-05-12T22:04:33.063Z,12.52
2019-05-12T22:06:59.118Z,12.27
2019-05-12T22:09:32.884Z,12.12
2019-05-12T22:11:57.749Z,12.16
2019-05-12T22:14:30.329Z,12.30
2019-05-12T22:16:57.993Z,11.98
2019-05-12T22:19:30.759Z,11.81
2019-05-12T22:21:56.585Z,11.77
2019-05-12T22:24:33.981Z,11.74
2019-05-12T22:26:55.180Z,11.67
2019-05-12T22:29:29.922Z,11.36
2019-05-12T22:31:54.174Z,11.44
2019-05-12T22:34:27.558Z,11.36
2019-05-12T22:36:57.670Z,11.55
2019-05-12T22:39:23.140Z,11.57
2019-05-12T22:41:51.570Z,11.42
2019-05-12T22:44:22.165Z,11.47
2019-05-12T22:46:50.128Z,11.17
2019-05-12T22:49:21.140Z,11.05
2019-05-12T22:51:56.932Z,11.06
2019-05-12T22:54:18.822Z,11.14
2019-05-12T22:56:49.628Z,11.18
2019-05-12T22:59:17.431Z,11.27
2019-05-12T23:01:46.874Z,11.26
2019-05-12T23:04:15.347Z,11.33
2019-05-12T23:06:46.662Z,11.38
2019-05-12T23:09:13.930Z,11.57
2019-05-12T23:11:42.344Z,11.39
2019-05-12T23:14:12.698Z,11.07
2019-05-12T23:16:40.947Z,10.87
2019-05-12T23:19:11.958Z,10.80
2019-05-12T23:21:39.546Z,10.78
2019-05-12T23:24:07.980Z,10.81
2019-05-12T23:26:41.850Z,10.90
2019-05-12T23:29:06.654Z,10.86
2019-05-12T23:31:35.084Z,10.71
2019-05-12T23:34:06.525Z,10.70
2019-05-12T23:36:36.491Z,10.60
2019-05-12T23:39:06.731Z,10.66
2019-05-12T23:41:35.188Z,10.69
2019-05-12T23:44:04.225Z,10.58
2019-05-12T23:46:34.337Z,10.79
2019-05-12T23:49:03.787Z,10.77
2019-05-12T23:51:34.081Z,10.59
2019-05-12T23:54:03.827Z,10.73
2019-05-12T23:56:33.750Z,10.69
2019-05-12T23:59:04.331Z,10.69
